createdAt,value
2019-03-18T00:04:47.821Z,100716.20
2019-03-18T00:09:40.920Z,100722.41
2019-03-18T00:14:33.992Z,100720.69
2019-03-18T00:19:27.650Z,100721.02
2019-03-18T00:24:20.756Z,100718.66
2019-03-18T00:29:13.852Z,100719.31
2019-03-18T00:34:06.965Z,100722.10
2019-03-18T00:39:00.107Z,100729.88
2019-03-18T00:43:53.229Z,100736.70
2019-03-18T00:48:46.368Z,100746.95
2019-03-18T00:53:39.476Z,100746.69
2019-03-18T00:58:32.612Z,100750.48
2019-03-18T01:03:25.711Z,100751.98
2019-03-18T01:08:18.851Z,100752.22
2019-03-18T01:13:11.983Z,100754.48
2019-03-18T01:18:05.121Z,100755.44
2019-03-18T01:22:58.249Z,100758.44
2019-03-18T01:27:51.326Z,100762.46
2019-03-18T01:32:44.433Z,100768.58
2019-03-18T01:37:37.554Z,100761.92
2019-03-18T01:42:30.672Z,100772.98
2019-03-18T01:47:23.910Z,100775.44
2019-03-18T01:52:17.017Z,100774.88
2019-03-18T01:57:10.109Z,100778.31
2019-03-18T02:02:03.231Z,100761.48
2019-03-18T02:06:56.331Z,100761.88
2019-03-18T02:11:49.451Z,100758.78
2019-03-18T02:16:42.565Z,100774.64
2019-03-18T02:21:35.736Z,100773.45
2019-03-18T02:26:28.804Z,100778.69
2019-03-18T02:31:21.964Z,100781.27
2019-03-18T02:36:15.054Z,100775.91
2019-03-18T02:41:08.747Z,100780.72
2019-03-18T02:46:09.791Z,100784.70
2019-03-18T02:50:57.664Z,100784.11
2019-03-18T02:55:51.311Z,100779.99
2019-03-18T03:00:44.467Z,100778.95
2019-03-18T03:05:37.594Z,100779.61
2019-03-18T03:10:30.708Z,100780.13
2019-03-18T03:15:23.827Z,100790.06
2019-03-18T03:20:16.940Z,100782.63
2019-03-18T03:25:10.215Z,100774.91
2019-03-18T03:30:04.533Z,100776.88
2019-03-18T03:34:58.035Z,100779.77
2019-03-18T03:39:51.136Z,100780.91
2019-03-18T03:44:44.261Z,100783.48
2019-03-18T03:49:37.447Z,100803.02
2019-03-18T03:54:30.682Z,100806.86
2019-03-18T03:59:23.935Z,100804.48
2019-03-18T04:04:17.151Z,100809.70
2019-03-18T04:09:10.329Z,100816.64
2019-03-18T04:14:03.673Z,100820.73
2019-03-18T04:18:56.831Z,100825.27
2019-03-18T04:23:50.390Z,100832.14
2019-03-18T04:28:43.496Z,100847.63
2019-03-18T04:33:39.228Z,100853.71
2019-03-18T04:38:32.192Z,100864.48
2019-03-18T04:43:27.237Z,100876.16
2019-03-18T04:48:20.725Z,100875.66
2019-03-18T04:53:13.895Z,100873.02
2019-03-18T04:58:06.976Z,100888.84
2019-03-18T05:03:00.267Z,100908.57
2019-03-18T05:07:53.372Z,100911.52
2019-03-18T05:12:46.509Z,100915.66
2019-03-18T05:17:39.582Z,100925.93
2019-03-18T05:22:32.716Z,100932.50
2019-03-18T05:27:25.823Z,100935.67
2019-03-18T05:32:18.975Z,100942.78
2019-03-18T05:37:12.111Z,100942.44
2019-03-18T05:42:05.551Z,100946.89
2019-03-18T05:46:58.685Z,100956.53
2019-03-18T05:51:51.780Z,100965.32
2019-03-18T05:56:44.902Z,100983.43
2019-03-18T06:01:38.000Z,100984.23
2019-03-18T06:06:31.136Z,100995.57
2019-03-18T06:11:24.259Z,100996.44
2019-03-18T06:16:17.345Z,100997.73
2019-03-18T06:21:10.537Z,101010.58
2019-03-18T06:26:03.709Z,101009.44
2019-03-18T06:30:56.814Z,101029.65
2019-03-18T06:35:49.930Z,101029.13
2019-03-18T06:40:43.054Z,101032.05
2019-03-18T06:45:36.165Z,101050.17
2019-03-18T06:50:29.586Z,101048.08
2019-03-18T06:55:22.703Z,101059.88
2019-03-18T07:00:15.845Z,101055.47
2019-03-18T07:05:09.170Z,101040.86
2019-03-18T07:10:02.407Z,101040.03
2019-03-18T07:14:55.710Z,101057.72
2019-03-18T07:19:49.096Z,101072.05
2019-03-18T07:24:42.201Z,101074.10
2019-03-18T07:29:35.329Z,101079.36
2019-03-18T07:34:28.385Z,101088.89
2019-03-18T07:39:21.537Z,101095.11
2019-03-18T07:44:14.664Z,101099.44
2019-03-18T07:49:07.995Z,101106.64
2019-03-18T07:54:01.297Z,101099.44
2019-03-18T07:58:54.603Z,101105.94
2019-03-18T08:03:48.352Z,101116.69
2019-03-18T08:08:41.517Z,101125.13
2019-03-18T08:13:34.810Z,101138.16
2019-03-18T08:18:28.021Z,101143.44
2019-03-18T08:23:21.309Z,101158.98
2019-03-18T08:28:14.621Z,101157.34
2019-03-18T08:33:07.974Z,101161.43
2019-03-18T08:38:01.176Z,101159.85
2019-03-18T08:42:54.371Z,101156.17
2019-03-18T08:47:47.510Z,101174.91
2019-03-18T08:52:40.834Z,101161.77
2019-03-18T08:57:34.266Z,101158.75
2019-03-18T09:02:27.503Z,101181.69
2019-03-18T09:07:20.708Z,101193.36
2019-03-18T09:12:14.079Z,101205.95
2019-03-18T09:17:07.436Z,101215.26
2019-03-18T09:22:00.679Z,101212.95
2019-03-18T09:27:02.353Z,101210.28
2019-03-18T09:31:49.005Z,101219.84
2019-03-18T09:36:42.268Z,101219.97
2019-03-18T09:41:35.567Z,101227.20
2019-03-18T09:46:28.792Z,101218.67
2019-03-18T09:51:22.126Z,101215.45
2019-03-18T09:56:15.465Z,101230.61
2019-03-18T10:01:08.778Z,101236.02
2019-03-18T10:06:01.853Z,101239.28
2019-03-18T10:10:55.321Z,101242.91
2019-03-18T10:15:48.565Z,101244.13
2019-03-18T10:20:41.861Z,101241.69
2019-03-18T10:25:35.089Z,101248.28
2019-03-18T10:30:28.370Z,101260.06
2019-03-18T10:35:21.545Z,101263.67
2019-03-18T10:40:14.958Z,101270.71
2019-03-18T10:45:08.874Z,101269.70
2019-03-18T10:50:02.213Z,101274.03
2019-03-18T10:54:55.405Z,101275.27
2019-03-18T10:59:48.621Z,101269.61
2019-03-18T11:04:41.965Z,101267.52
2019-03-18T11:09:35.234Z,101256.73
2019-03-18T11:14:28.419Z,101265.98
2019-03-18T11:19:21.658Z,101277.56
2019-03-18T11:24:14.916Z,101286.17
2019-03-18T11:29:08.287Z,101286.69
2019-03-18T11:34:01.500Z,101300.27
2019-03-18T11:38:54.852Z,101306.56
2019-03-18T11:43:48.064Z,101341.54
2019-03-18T11:48:41.321Z,101359.54
2019-03-18T11:53:34.628Z,101362.37
2019-03-18T11:58:27.878Z,101353.53
2019-03-18T12:03:21.207Z,101350.15
2019-03-18T12:08:14.368Z,101347.75
2019-03-18T12:13:07.615Z,101348.33
2019-03-18T12:18:00.935Z,101351.11
2019-03-18T12:22:54.142Z,101348.94
2019-03-18T12:27:47.488Z,101350.45
2019-03-18T12:32:40.688Z,101344.83
2019-03-18T12:37:34.126Z,101336.94
2019-03-18T12:42:27.298Z,101334.96
2019-03-18T12:47:20.575Z,101331.55
2019-03-18T12:52:13.811Z,101321.17
2019-03-18T12:57:07.037Z,101318.56
2019-03-18T13:02:00.205Z,101318.89
2019-03-18T13:06:53.460Z,101321.69
2019-03-18T13:11:46.824Z,101325.31
2019-03-18T13:16:40.051Z,101313.10
2019-03-18T13:21:33.448Z,101315.47
2019-03-18T13:26:26.553Z,101312.31
2019-03-18T13:31:19.893Z,101320.74
2019-03-18T13:36:13.159Z,101319.85
2019-03-18T13:41:06.504Z,101333.20
2019-03-18T13:45:59.678Z,101353.11
2019-03-18T13:50:53.013Z,101389.23
2019-03-18T13:55:46.344Z,101417.64
2019-03-18T14:00:39.665Z,101446.06
2019-03-18T14:05:32.825Z,101434.77
2019-03-18T14:10:26.486Z,101414.45
2019-03-18T14:15:19.704Z,101417.69
2019-03-18T14:20:14.100Z,101423.00
2019-03-18T14:25:07.534Z,101418.06
2019-03-18T14:30:00.799Z,101408.97
2019-03-18T14:34:53.981Z,101404.77
2019-03-18T14:39:47.323Z,101403.78
2019-03-18T14:44:40.647Z,101404.64
2019-03-18T14:49:33.813Z,101401.49
2019-03-18T14:54:26.924Z,101402.30
2019-03-18T14:59:20.101Z,101402.77
2019-03-18T15:04:13.464Z,101398.76
2019-03-18T15:09:08.138Z,101410.23
2019-03-18T15:14:01.321Z,101411.31
2019-03-18T15:18:54.509Z,101405.95
2019-03-18T15:23:47.749Z,101407.31
2019-03-18T15:28:40.911Z,101402.63
2019-03-18T15:33:34.148Z,101409.87
2019-03-18T15:38:27.483Z,101408.57
2019-03-18T15:43:20.704Z,101403.05
2019-03-18T15:48:14.071Z,101401.90
2019-03-18T15:53:07.396Z,101399.66
2019-03-18T15:58:00.712Z,101396.78
2019-03-18T16:02:53.839Z,101409.88
2019-03-18T16:07:47.197Z,101417.90
2019-03-18T16:12:40.554Z,101410.00
2019-03-18T16:17:33.814Z,101423.22
2019-03-18T16:22:27.040Z,101428.62
2019-03-18T16:27:20.388Z,101438.05
2019-03-18T16:32:13.654Z,101450.11
2019-03-18T16:37:06.974Z,101457.46
2019-03-18T16:42:00.180Z,101464.90
2019-03-18T16:46:53.415Z,101473.93
2019-03-18T16:51:46.542Z,101476.72
2019-03-18T16:56:39.906Z,101494.02
2019-03-18T17:01:33.096Z,101495.48
2019-03-18T17:06:26.227Z,101495.94
2019-03-18T17:11:19.466Z,101504.01
2019-03-18T17:16:12.842Z,101511.84
2019-03-18T17:21:06.156Z,101517.86
2019-03-18T17:25:59.394Z,101516.52
2019-03-18T17:30:52.732Z,101525.61
2019-03-18T17:35:45.892Z,101539.15
2019-03-18T17:40:39.008Z,101557.17
2019-03-18T17:45:32.139Z,101558.84
2019-03-18T17:50:25.246Z,101564.91
2019-03-18T17:55:18.377Z,101575.94
2019-03-18T18:00:16.350Z,101586.53
2019-03-18T18:05:09.490Z,101588.58
2019-03-18T18:10:02.612Z,101598.25
2019-03-18T18:14:55.726Z,101606.89
2019-03-18T18:19:48.861Z,101616.97
2019-03-18T18:24:42.007Z,101616.69
2019-03-18T18:29:35.126Z,101629.34
2019-03-18T18:34:28.222Z,101639.82
2019-03-18T18:39:21.358Z,101650.66
2019-03-18T18:44:14.494Z,101655.25
2019-03-18T18:49:07.581Z,101663.25
2019-03-18T18:54:00.834Z,101671.38
2019-03-18T18:58:53.979Z,101675.11
2019-03-18T19:03:47.118Z,101680.47
2019-03-18T19:08:40.233Z,101692.61
2019-03-18T19:13:33.360Z,101696.23
2019-03-18T19:18:37.270Z,101700.53
2019-03-18T19:23:21.493Z,101710.48
2019-03-18T19:28:14.603Z,101722.59
2019-03-18T19:33:08.116Z,101725.39
2019-03-18T19:38:01.218Z,101732.05
2019-03-18T19:42:54.342Z,101733.97
2019-03-18T19:47:47.482Z,101741.61
2019-03-18T19:52:40.587Z,101737.43
2019-03-18T19:57:33.869Z,101749.27
2019-03-18T20:02:27.074Z,101754.00
2019-03-18T20:07:20.333Z,101759.84
2019-03-18T20:12:13.653Z,101764.09
2019-03-18T20:17:06.998Z,101762.66
2019-03-18T20:22:00.190Z,101767.78
2019-03-18T20:26:53.425Z,101784.95
2019-03-18T20:31:46.641Z,101783.72
2019-03-18T20:36:39.859Z,101787.72
2019-03-18T20:41:33.208Z,101799.36
2019-03-18T20:46:26.299Z,101805.60
2019-03-18T20:51:19.629Z,101805.33
2019-03-18T20:56:12.784Z,101811.06
2019-03-18T21:01:05.966Z,101815.81
2019-03-18T21:05:59.301Z,101822.71
2019-03-18T21:10:55.281Z,101829.31
2019-03-18T21:15:48.424Z,101839.19
2019-03-18T21:20:41.496Z,101845.16
2019-03-18T21:25:34.698Z,101850.80
2019-03-18T21:30:27.871Z,101855.71
2019-03-18T21:35:21.173Z,101864.13
2019-03-18T21:40:15.526Z,101864.00
2019-03-18T21:45:12.077Z,101877.09
2019-03-18T21:50:05.399Z,101884.56
2019-03-18T21:54:58.754Z,101888.03
2019-03-18T21:59:51.880Z,101898.64
2019-03-18T22:04:45.060Z,101904.37
2019-03-18T22:09:38.908Z,101909.72
2019-03-18T22:14:32.561Z,101901.45
2019-03-18T22:19:25.678Z,101907.32
2019-03-18T22:24:18.772Z,101911.31
2019-03-18T22:29:11.860Z,101917.48
2019-03-18T22:34:05.045Z,101920.09
2019-03-18T22:38:58.269Z,101907.20
2019-03-18T22:43:51.346Z,101922.45
2019-03-18T22:48:44.512Z,101920.55
2019-03-18T22:53:37.633Z,101924.02
2019-03-18T22:58:30.989Z,101930.17
2019-03-18T23:03:24.209Z,101935.61
2019-03-18T23:08:17.321Z,101930.03
2019-03-18T23:13:10.405Z,101923.50
2019-03-18T23:18:04.001Z,101931.29
2019-03-18T23:22:57.655Z,101938.63
2019-03-18T23:27:50.836Z,101941.44
2019-03-18T23:32:44.477Z,101949.42
2019-03-18T23:37:37.735Z,101945.67
2019-03-18T23:42:30.932Z,101938.30
2019-03-18T23:47:24.192Z,101950.78
2019-03-18T23:52:17.328Z,101954.14
2019-03-18T23:57:11.994Z,101960.38
